Terminal Aerodrome Forecast
Issued by NWS Louisville, KY

Home | Current Version | Previous Version | Text Only | Print | Product List | Glossary On
Versions: 1 2 3 4 5 6 7 8 9 10 11 12 13 14 15 16 17 18 19 20 21 22 23 24 25
000
FTUS43 KLMK 150200 AAA
TAFSDF
TAF AMD
KSDF 150205Z 1502/1606 30011G20KT 5SM -RA BR SCT007 OVC015
     FM150600 32018G23KT P6SM -DZ OVC008
     FM150900 33016G20KT P6SM BKN012
     FM151400 33015KT P6SM BKN025
     FM151800 33014KT P6SM BKN035=

USA.gov is the U.S. government's official web portal to all federal, state and local government web resources and services.